Time;durP1;ratioP1;P1;durP2;ratioP2;P2;SDS_P1;SDS_P2;PMS_P1;PMS_P2;Temp;Humidity;BMP_temperature;BMP_pressure;BME280_temperature;BME280_humidity;BME280_pressure;Samples;Min_cycle;Max_cycle;Signal;HPM_P1;HPM_P2
2022/04/22 00:02:36;;;;;;;35.30;23.40;;;;;;;8.29;75.89;99767.23;130299;1270;108692;-73
2022/04/22 00:05:41;;;;;;;31.30;22.00;;;;;;;8.29;75.99;99762.77;130296;1268;108774;-72
2022/04/22 00:08:47;;;;;;;34.80;23.40;;;;;;;8.30;76.14;99766.11;130239;1268;108883;-71
2022/04/22 00:11:52;;;;;;;34.20;21.20;;;;;;;8.29;76.13;99766.00;129961;1268;108763;-71
2022/04/22 00:14:58;;;;;;;30.70;18.70;;;;;;;8.29;75.93;99761.40;129989;1270;108863;-72
2022/04/22 00:18:03;;;;;;;36.10;23.00;;;;;;;8.32;76.16;99756.47;130359;1268;107839;-72
2022/04/22 00:21:08;;;;;;;40.40;25.60;;;;;;;8.41;76.11;99748.13;130342;1269;108692;-73
2022/04/22 00:24:14;;;;;;;45.50;27.50;;;;;;;8.47;75.82;99746.16;130259;1268;108795;-73
2022/04/22 00:27:19;;;;;;;41.80;27.50;;;;;;;8.42;76.07;99747.16;130144;1270;198487;-71
2022/04/22 00:30:25;;;;;;;44.00;27.50;;;;;;;8.40;76.13;99750.48;130317;1268;108536;-72
2022/04/22 00:33:31;;;;;;;39.30;25.60;;;;;;;8.40;76.12;99754.25;130340;1268;108938;-71
2022/04/22 00:36:36;;;;;;;41.00;25.80;;;;;;;8.39;76.27;99751.02;130352;1268;109012;-72
2022/04/22 00:39:42;;;;;;;42.00;25.90;;;;;;;8.40;76.16;99753.75;130336;1268;108756;-74
2022/04/22 00:42:47;;;;;;;33.30;20.60;;;;;;;8.40;76.07;99751.56;130321;1268;108575;-72
2022/04/22 00:45:54;;;;;;;33.10;20.50;;;;;;;8.41;76.16;99745.33;130244;1268;108939;-73
2022/04/22 00:48:59;;;;;;;36.40;21.60;;;;;;;8.42;76.25;99743.64;130350;1270;108959;-73
2022/04/22 00:52:08;;;;;;;35.10;21.50;;;;;;;8.46;76.29;99742.70;130281;1269;108867;-74
2022/04/22 00:55:14;;;;;;;39.30;24.10;;;;;;;8.50;76.10;99740.58;130348;1268;108654;-72
2022/04/22 00:58:19;;;;;;;44.70;25.30;;;;;;;8.52;76.12;99739.83;130337;1268;107482;-71
2022/04/22 01:01:25;;;;;;;41.30;25.90;;;;;;;8.54;76.15;99735.38;130301;1268;108469;-72
2022/04/22 01:11:18;;;;;;;51.60;28.70;;;;;;;8.41;76.37;99739.80;130291;1268;108768;-72
2022/04/22 01:14:23;;;;;;;44.40;23.80;;;;;;;8.40;76.34;99739.06;130258;1270;108714;-72
2022/04/22 01:17:29;;;;;;;42.70;23.40;;;;;;;8.40;76.37;99735.14;130263;1268;109607;-71
2022/04/22 01:20:35;;;;;;;49.50;27.50;;;;;;;8.42;76.56;99733.75;130299;1270;108914;-71
2022/04/22 01:23:40;;;;;;;49.90;28.10;;;;;;;8.44;76.40;99733.88;130260;1268;108477;-72
2022/04/22 01:26:46;;;;;;;50.00;28.20;;;;;;;8.46;76.36;99733.44;130246;1268;108782;-71
2022/04/22 01:29:52;;;;;;;46.90;27.40;;;;;;;8.50;76.46;99738.98;130094;1269;108989;-72
2022/04/22 01:32:58;;;;;;;47.40;29.00;;;;;;;8.51;76.34;99737.58;130306;1268;109039;-72
2022/04/22 01:36:04;;;;;;;46.10;27.80;;;;;;;8.52;76.49;99736.11;130260;1271;108921;-73
2022/04/22 01:39:09;;;;;;;46.20;28.40;;;;;;;8.52;76.49;99735.70;130277;1268;108727;-72
2022/04/22 01:42:15;;;;;;;49.00;29.60;;;;;;;8.50;76.30;99731.11;130285;1270;108652;-72
2022/04/22 01:45:20;;;;;;;44.20;24.90;;;;;;;8.49;76.43;99734.25;130301;1269;108783;-72
2022/04/22 01:48:26;;;;;;;35.10;21.60;;;;;;;8.45;76.37;99729.70;130205;1270;108686;-69
2022/04/22 01:51:31;;;;;;;39.40;25.00;;;;;;;8.41;76.61;99732.73;130026;1268;108682;-72
2022/04/22 01:54:36;;;;;;;40.60;25.00;;;;;;;8.45;76.71;99731.79;130329;1269;107662;-73
2022/04/22 01:57:42;;;;;;;38.80;24.20;;;;;;;8.52;76.71;99733.23;130275;1271;108706;-72
2022/04/22 02:00:48;;;;;;;41.70;24.80;;;;;;;8.57;76.43;99727.95;130327;1268;108718;-72
2022/04/22 02:03:53;;;;;;;39.40;25.30;;;;;;;8.59;76.48;99723.64;130309;1268;108938;-71
2022/04/22 02:07:00;;;;;;;38.80;26.40;;;;;;;8.53;76.55;99726.21;130306;1269;109382;-72
2022/04/22 02:10:07;;;;;;;41.50;26.50;;;;;;;8.35;76.65;99725.89;130288;1268;109135;-71
2022/04/22 02:13:12;;;;;;;41.30;24.30;;;;;;;8.26;77.09;99725.89;130284;1268;108953;-72
2022/04/22 02:16:18;;;;;;;36.80;22.00;;;;;;;8.20;77.51;99731.05;130250;1268;108639;-72
2022/04/22 02:19:24;;;;;;;42.20;25.90;;;;;;;8.17;77.74;99732.19;130315;1270;108606;-72
2022/04/22 02:22:29;;;;;;;39.10;24.50;;;;;;;8.21;77.95;99736.41;130319;1268;108938;-73
2022/04/22 02:25:34;;;;;;;35.60;22.50;;;;;;;8.23;78.08;99737.10;130287;1268;107170;-73
2022/04/22 02:28:40;;;;;;;32.00;21.40;;;;;;;8.24;78.11;99739.87;130260;1269;108789;-72
2022/04/22 02:31:46;;;;;;;32.00;21.00;;;;;;;8.26;78.24;99737.34;130290;1269;108570;-72
2022/04/22 02:34:51;;;;;;;39.90;25.70;;;;;;;8.26;77.97;99737.83;130245;1268;108635;-69
2022/04/22 02:37:57;;;;;;;34.50;23.90;;;;;;;8.31;78.23;99734.09;129959;1269;108711;-70
2022/04/22 02:47:49;;;;;;;25.70;19.70;;;;;;;8.53;78.32;99732.77;130292;1268;108813;-73
2022/04/22 02:50:54;;;;;;;33.30;25.50;;;;;;;8.58;78.29;99733.04;130422;1268;108452;-72
2022/04/22 02:54:00;;;;;;;22.60;17.00;;;;;;;8.60;78.44;99735.66;130259;1271;107275;-73
2022/04/22 02:57:06;;;;;;;33.60;23.70;;;;;;;8.62;78.28;99735.04;130317;1268;108773;-73
2022/04/22 03:00:14;;;;;;;22.20;16.50;;;;;;;8.63;78.56;99731.83;130342;1268;108800;-74
2022/04/22 03:03:20;;;;;;;31.00;23.50;;;;;;;8.64;78.40;99735.58;130364;1268;108733;-73
2022/04/22 03:06:26;;;;;;;37.30;28.60;;;;;;;8.69;78.47;99735.96;130228;1268;108728;-73
2022/04/22 03:09:31;;;;;;;26.70;20.50;;;;;;;8.74;78.52;99731.58;130329;1271;108938;-73
2022/04/22 03:12:37;;;;;;;29.20;21.20;;;;;;;8.78;78.51;99727.98;130312;1271;108839;-74
2022/04/22 03:15:42;;;;;;;30.60;21.60;;;;;;;8.79;78.42;99726.09;130359;1268;108665;-74
2022/04/22 03:18:48;;;;;;;20.90;14.60;;;;;;;8.75;78.68;99723.90;130383;1268;108880;-73
2022/04/22 03:21:53;;;;;;;21.30;17.00;;;;;;;8.70;78.63;99722.06;130243;1268;108694;-73
2022/04/22 03:25:00;;;;;;;16.30;12.00;;;;;;;8.67;78.83;99717.59;130288;1268;107497;-74
2022/04/22 03:28:07;;;;;;;18.50;13.80;;;;;;;8.66;78.65;99712.36;130287;1268;107652;-73
2022/04/22 03:31:13;;;;;;;21.90;14.20;;;;;;;8.69;78.76;99714.23;130329;1268;108985;-74
2022/04/22 03:34:18;;;;;;;19.50;13.90;;;;;;;8.73;78.81;99715.08;130268;1268;108531;-73
2022/04/22 03:37:24;;;;;;;20.80;15.60;;;;;;;8.75;78.74;99715.86;130282;1268;108619;-73
2022/04/22 03:40:29;;;;;;;21.20;15.90;;;;;;;8.75;78.84;99716.59;130257;1268;108770;-73
2022/04/22 03:43:35;;;;;;;20.60;14.10;;;;;;;8.73;79.02;99715.54;130262;1268;108685;-73
2022/04/22 03:46:40;;;;;;;21.10;14.90;;;;;;;8.72;78.72;99718.55;130327;1268;108016;-73
2022/04/22 03:49:46;;;;;;;25.90;16.50;;;;;;;8.72;78.82;99715.88;130339;1268;107747;-73
2022/04/22 03:52:51;;;;;;;25.50;17.20;;;;;;;8.75;78.95;99718.25;130323;1268;108775;-74
2022/04/22 03:58:10;;;;;;;23.90;16.50;;;;;;;8.79;79.02;99713.86;130349;1268;108904;-73
2022/04/22 03:59:24;;;;;;;19.20;14.10;;;;;;;8.81;78.93;99710.12;130381;1267;108759;-73
2022/04/22 04:02:29;;;;;;;22.80;16.10;;;;;;;8.83;78.99;99713.32;130370;1268;108628;-73
2022/04/22 04:05:35;;;;;;;20.40;14.30;;;;;;;8.85;79.06;99712.60;130345;1268;108682;-73
2022/04/22 04:15:57;;;;;;;20.90;14.90;;;;;;;8.84;79.11;99716.36;130360;1268;108760;-73
2022/04/22 04:18:52;;;;;;;23.00;15.70;;;;;;;8.93;79.47;99727.22;130384;1268;108773;-74
2022/04/22 04:25:20;;;;;;;18.80;15.30;;;;;;;8.95;79.59;99741.49;130386;1267;108662;-74
2022/04/22 04:28:27;;;;;;;19.60;13.00;;;;;;;8.93;79.56;99744.16;130361;1268;108479;-73
2022/04/22 04:31:33;;;;;;;15.70;11.70;;;;;;;8.91;79.75;99749.43;130355;1268;108679;-73
2022/04/22 04:34:38;;;;;;;19.70;13.80;;;;;;;8.92;79.90;99749.52;130392;1268;108693;-74
2022/04/22 04:37:44;;;;;;;18.00;13.00;;;;;;;8.95;79.71;99750.92;130341;1268;108907;-74
2022/04/22 04:40:50;;;;;;;18.80;13.60;;;;;;;8.98;79.99;99751.89;130341;1268;108572;-74
2022/04/22 04:43:55;;;;;;;15.30;12.60;;;;;;;8.98;80.00;99747.92;130308;1268;108754;-73
2022/04/22 04:47:01;;;;;;;17.70;12.50;;;;;;;9.00;79.97;99745.14;130396;1268;108855;-74
2022/04/22 04:50:09;;;;;;;13.40;9.80;;;;;;;8.99;80.07;99754.42;130318;1268;109101;-74
2022/04/22 04:53:15;;;;;;;13.20;9.00;;;;;;;8.99;80.07;99750.55;130390;1268;108774;-74
2022/04/22 04:56:20;;;;;;;14.60;10.40;;;;;;;8.98;80.04;99754.73;130374;1268;108805;-73
2022/04/22 04:59:26;;;;;;;12.30;9.50;;;;;;;8.99;80.14;99758.02;130357;1268;108593;-73
2022/04/22 05:02:32;;;;;;;10.20;8.30;;;;;;;9.00;80.10;99763.38;130383;1268;108798;-74
2022/04/22 05:05:37;;;;;;;11.80;8.40;;;;;;;9.02;79.98;99768.30;130389;1268;108846;-72
2022/04/22 05:08:43;;;;;;;11.00;7.90;;;;;;;9.02;79.96;99771.36;130309;1268;108778;-73
2022/04/22 05:11:48;;;;;;;9.90;7.00;;;;;;;8.99;79.82;99772.89;130307;1268;108722;-70
2022/04/22 05:14:54;;;;;;;8.50;5.60;;;;;;;9.00;79.92;99765.20;130085;1268;107116;-71
2022/04/22 05:18:02;;;;;;;8.50;6.20;;;;;;;9.04;79.75;99773.09;130086;1268;108791;-72
2022/04/22 05:21:07;;;;;;;8.20;5.80;;;;;;;9.08;79.55;99772.67;130325;1268;108607;-71
2022/04/22 05:24:13;;;;;;;6.40;4.90;;;;;;;9.12;79.51;99771.94;130111;1268;108817;-72
2022/04/22 05:27:18;;;;;;;8.00;4.90;;;;;;;9.17;79.39;99774.30;130376;1268;108808;-72
2022/04/22 05:33:46;;;;;;;4.00;3.30;;;;;;;9.15;79.13;99771.50;130249;1268;107705;-72
2022/04/22 05:36:52;;;;;;;3.80;2.60;;;;;;;9.11;79.04;99773.13;130330;1268;108597;-72
2022/04/22 05:39:57;;;;;;;2.60;2.10;;;;;;;9.10;79.22;99773.58;130329;1268;109024;-72
2022/04/22 05:43:04;;;;;;;4.20;2.60;;;;;;;9.12;78.97;99768.04;130384;1268;108711;-72
2022/04/22 05:46:14;;;;;;;3.20;2.60;;;;;;;9.16;78.88;99764.29;130423;1267;108893;-72
2022/04/22 05:49:20;;;;;;;6.40;4.20;;;;;;;9.16;78.92;99757.65;130395;1268;108861;-71
2022/04/22 05:52:27;;;;;;;4.60;3.50;;;;;;;9.23;78.78;99764.42;130382;1268;108306;-73
2022/04/22 05:55:34;;;;;;;3.30;2.90;;;;;;;9.29;78.79;99772.15;130362;1268;108552;-72
2022/04/22 05:58:39;;;;;;;5.10;3.10;;;;;;;9.37;78.88;99772.73;130348;1267;109158;-72
2022/04/22 06:01:45;;;;;;;3.20;2.20;;;;;;;9.53;78.66;99773.60;130393;1268;108825;-72
2022/04/22 06:04:50;;;;;;;3.20;2.10;;;;;;;9.65;78.33;99772.36;130310;1268;108921;-72
2022/04/22 06:11:19;;;;;;;3.60;2.70;;;;;;;9.98;78.32;99766.33;130415;1268;108924;-73
2022/04/22 06:14:24;;;;;;;3.90;2.60;;;;;;;10.17;77.65;99765.16;130402;1268;108851;-72
2022/04/22 06:17:30;;;;;;;3.00;2.10;;;;;;;10.37;77.86;99766.84;130321;1268;108586;-73
2022/04/22 06:20:36;;;;;;;2.50;2.10;;;;;;;10.57;77.41;99771.44;130337;1268;109200;-72
2022/04/22 06:23:41;;;;;;;2.20;2.00;;;;;;;10.71;76.76;99776.58;130274;1268;108804;-72
2022/04/22 06:26:47;;;;;;;4.30;2.90;;;;;;;10.75;76.81;99781.95;130270;1268;109533;-73
2022/04/22 06:29:54;;;;;;;3.00;2.30;;;;;;;10.79;76.77;99786.37;130281;1268;107638;-72
2022/04/22 06:33:03;;;;;;;3.50;2.90;;;;;;;10.85;76.81;99793.15;130291;1268;108237;-72
2022/04/22 06:36:13;;;;;;;2.70;2.40;;;;;;;10.88;76.96;99795.74;130208;1268;108936;-73
2022/04/22 06:39:19;;;;;;;3.80;3.30;;;;;;;10.92;76.70;99794.74;130276;1268;108880;-72
2022/04/22 06:45:50;;;;;;;3.80;3.20;;;;;;;11.08;76.30;99801.21;130301;1268;108659;-73
2022/04/22 06:48:56;;;;;;;2.70;2.50;;;;;;;11.14;76.25;99800.64;130248;1268;108910;-72
2022/04/22 06:52:02;;;;;;;3.40;3.10;;;;;;;11.15;75.67;99799.71;130319;1268;108859;-71
2022/04/22 06:55:10;;;;;;;3.50;2.70;;;;;;;11.13;75.64;99799.85;130284;1268;108704;-71
2022/04/22 06:58:17;;;;;;;4.50;2.70;;;;;;;11.09;75.55;99797.34;130283;1268;108648;-72
2022/04/22 07:01:24;;;;;;;3.20;2.70;;;;;;;10.97;74.94;99799.85;130300;1268;108688;-72
2022/04/22 07:04:31;;;;;;;3.70;2.90;;;;;;;10.87;75.04;99797.59;130231;1268;107653;-71
2022/04/22 07:07:37;;;;;;;5.30;3.00;;;;;;;10.79;74.65;99801.08;130242;1267;108538;-71
2022/04/22 07:10:45;;;;;;;3.40;2.90;;;;;;;10.73;73.94;99807.73;130217;1268;107693;-72
2022/04/22 07:13:52;;;;;;;2.90;2.50;;;;;;;10.80;74.38;99811.89;130327;1268;108695;-72
2022/04/22 07:16:58;;;;;;;3.40;3.10;;;;;;;10.92;74.50;99810.36;130246;1268;108650;-72
2022/04/22 07:20:09;;;;;;;4.70;3.80;;;;;;;11.08;73.50;99804.91;130374;1267;108634;-72
2022/04/22 07:23:15;;;;;;;5.80;4.00;;;;;;;11.24;72.99;99807.59;130358;1266;108830;-72
2022/04/22 07:26:22;;;;;;;8.20;5.50;;;;;;;11.41;73.21;99810.50;130155;1268;109518;-71
2022/04/22 07:29:31;;;;;;;7.90;5.70;;;;;;;11.54;72.33;99809.44;130060;1268;109537;-72
2022/04/22 07:32:38;;;;;;;5.80;5.10;;;;;;;11.60;71.59;99816.67;130004;1268;108974;-71
2022/04/22 07:35:45;;;;;;;10.40;6.40;;;;;;;11.62;71.59;99814.63;130161;1267;109102;-71
2022/04/22 07:38:51;;;;;;;8.80;5.80;;;;;;;11.65;71.59;99822.67;130184;1267;106593;-71
2022/04/22 07:41:57;;;;;;;8.10;6.40;;;;;;;11.64;71.60;99832.80;130120;1268;108871;-71
2022/04/22 07:48:30;;;;;;;13.90;8.70;;;;;;;11.44;71.08;99825.42;130010;1268;107538;-72
2022/04/22 07:51:35;;;;;;;23.20;14.40;;;;;;;11.42;71.29;99826.30;130111;1268;108712;-71
2022/04/22 07:54:41;;;;;;;12.00;9.50;;;;;;;11.57;71.07;99823.80;130112;1267;108766;-71
2022/04/22 07:57:46;;;;;;;12.90;8.30;;;;;;;11.70;70.24;99817.65;130120;1267;108966;-72
2022/04/22 08:00:52;;;;;;;7.90;6.50;;;;;;;11.79;69.61;99821.99;130525;1267;108634;-75
2022/04/22 08:03:59;;;;;;;8.40;6.80;;;;;;;11.85;68.54;99822.26;130398;1267;108727;-75
2022/04/22 08:07:07;;;;;;;8.20;6.70;;;;;;;11.92;69.37;99821.86;130341;1267;108735;-76
2022/04/22 08:10:12;;;;;;;13.90;9.40;;;;;;;12.08;69.50;99826.09;130366;1268;108903;-76
2022/04/22 08:13:19;;;;;;;13.40;9.60;;;;;;;12.22;68.91;99822.21;130355;1268;106705;-75
2022/04/22 08:16:25;;;;;;;9.50;6.80;;;;;;;12.39;68.46;99816.13;130421;1267;108668;-74
2022/04/22 08:19:30;;;;;;;11.70;8.10;;;;;;;12.41;68.20;99818.51;130450;1267;108891;-73
2022/04/22 08:22:36;;;;;;;12.70;8.20;;;;;;;12.39;67.34;99821.35;130703;1267;108715;-73
2022/04/22 08:25:42;;;;;;;12.60;7.40;;;;;;;12.30;67.28;99818.16;130399;1268;108782;-72
2022/04/22 08:28:47;;;;;;;8.20;6.30;;;;;;;12.22;67.62;99812.77;130139;1268;108644;-74
2022/04/22 08:31:53;;;;;;;7.10;6.30;;;;;;;12.15;68.00;99807.61;130050;1267;108794;-72
2022/04/22 08:34:58;;;;;;;12.40;8.60;;;;;;;12.06;68.11;99809.04;130342;1267;108871;-71
2022/04/22 08:38:06;;;;;;;10.70;8.70;;;;;;;11.97;67.60;99820.44;130642;1268;109166;-74
2022/04/22 08:41:14;;;;;;;17.30;9.80;;;;;;;11.95;67.71;99816.56;130341;1267;107649;-74
2022/04/22 08:44:22;;;;;;;8.80;7.00;;;;;;;12.02;67.78;99813.98;130585;1267;108741;-73
2022/04/22 08:50:55;;;;;;;16.70;8.90;;;;;;;12.51;65.95;99820.18;130358;1268;108505;-73
2022/04/22 08:54:00;;;;;;;19.30;12.40;;;;;;;12.71;65.77;99826.05;130346;1268;107326;-73
2022/04/22 08:57:06;;;;;;;20.90;11.00;;;;;;;12.83;65.91;99838.58;130352;1267;108919;-73
2022/04/22 09:00:14;;;;;;;14.20;8.40;;;;;;;12.83;65.61;99838.11;130450;1268;109002;-72
2022/04/22 09:03:20;;;;;;;12.20;7.60;;;;;;;12.96;65.59;99837.95;130265;1268;108926;-73
2022/04/22 09:06:27;;;;;;;8.80;6.30;;;;;;;13.13;64.92;99828.52;130275;1268;108685;-72
2022/04/22 09:09:33;;;;;;;11.90;7.10;;;;;;;13.17;64.48;99831.25;130375;1265;108873;-74
2022/04/22 09:12:38;;;;;;;11.70;7.30;;;;;;;13.33;64.05;99826.89;130340;1267;109187;-73
2022/04/22 09:15:45;;;;;;;6.70;5.60;;;;;;;13.55;63.87;99824.50;130227;1268;108979;-74
2022/04/22 09:19:01;;;;;;;5.30;4.80;;;;;;;13.78;62.43;99827.86;130339;1267;108786;-74
2022/04/22 09:22:06;;;;;;;6.00;4.40;;;;;;;13.89;62.65;99823.95;130568;1268;108705;-73
2022/04/22 09:25:12;;;;;;;5.40;4.50;;;;;;;14.01;62.71;99826.63;130438;1267;108961;-74
2022/04/22 09:28:17;;;;;;;6.50;5.10;;;;;;;14.00;59.71;99828.41;130273;1268;107685;-73
2022/04/22 09:31:23;;;;;;;5.10;4.60;;;;;;;13.88;61.51;99822.14;130346;1268;108945;-73
2022/04/22 09:34:45;;;;;;;5.70;4.90;;;;;;;13.88;62.14;99819.80;130323;1267;108691;-72
2022/04/22 09:44:40;;;;;;;6.40;4.50;;;;;;;13.33;61.01;99820.48;130343;1268;108741;-72
2022/04/22 09:47:56;;;;;;;7.50;5.30;;;;;;;13.11;61.29;99814.66;130312;1268;108656;-72
2022/04/22 09:51:01;;;;;;;6.30;4.90;;;;;;;12.92;61.72;99809.73;130506;1268;108634;-73
2022/04/22 09:54:10;;;;;;;5.40;4.90;;;;;;;12.95;61.93;99802.95;130391;1267;107620;-73
2022/04/22 09:57:15;;;;;;;5.30;4.80;;;;;;;13.10;61.34;99798.27;130390;1267;108636;-74
2022/04/22 10:00:22;;;;;;;6.70;6.00;;;;;;;13.17;60.90;99802.80;130371;1267;108815;-72
2022/04/22 10:03:30;;;;;;;7.10;5.60;;;;;;;13.20;59.66;99806.09;130452;1267;109518;-72
2022/04/22 10:06:36;;;;;;;9.80;8.30;;;;;;;13.29;60.61;99806.05;130366;1268;109231;-73
2022/04/22 10:09:42;;;;;;;5.80;4.80;;;;;;;13.54;60.28;99804.88;130374;1267;108788;-74
2022/04/22 10:12:49;;;;;;;4.70;4.30;;;;;;;13.89;60.41;99800.90;130503;1268;108651;-74
2022/04/22 10:15:55;;;;;;;4.30;3.90;;;;;;;14.17;58.80;99802.21;130452;1268;108684;-75
2022/04/22 10:19:01;;;;;;;5.00;4.50;;;;;;;14.38;58.99;99803.91;130374;1267;108842;-73
2022/04/22 10:22:10;;;;;;;6.30;5.30;;;;;;;14.54;58.67;99807.86;130406;1267;108991;-72
2022/04/22 10:25:16;;;;;;;6.20;4.70;;;;;;;14.64;58.78;99809.56;130330;1266;108735;-73
2022/04/22 10:28:23;;;;;;;6.20;4.60;;;;;;;14.62;57.32;99810.73;130369;1268;109066;-73
2022/04/22 10:31:30;;;;;;;4.30;3.90;;;;;;;14.49;56.00;99816.14;130331;1268;108883;-72
2022/04/22 10:34:42;;;;;;;4.30;3.90;;;;;;;14.39;55.29;99818.67;130354;1268;108975;-72
2022/04/22 10:37:49;;;;;;;4.20;3.80;;;;;;;14.34;56.30;99819.27;130410;1267;108758;-72
2022/04/22 10:40:55;;;;;;;5.70;4.60;;;;;;;14.34;57.01;99818.31;130400;1267;108944;-72
2022/04/22 10:50:59;;;;;;;6.00;4.70;;;;;;;14.39;57.04;99825.44;126185;1307;636768;-72
2022/04/22 10:54:05;;;;;;;5.10;4.50;;;;;;;14.46;56.97;99821.15;129407;1281;108872;-72
2022/04/22 10:57:18;;;;;;;5.30;4.80;;;;;;;14.63;57.28;99824.16;129273;1280;108753;-72
2022/04/22 11:00:31;;;;;;;5.00;4.50;;;;;;;14.65;55.64;99830.48;129428;1281;108888;-72
2022/04/22 11:03:37;;;;;;;5.30;4.80;;;;;;;14.54;56.02;99825.77;129202;1277;289249;-71
2022/04/22 11:06:42;;;;;;;5.00;4.50;;;;;;;14.61;56.35;99820.23;129577;1277;109063;-73
2022/04/22 11:09:48;;;;;;;5.90;5.30;;;;;;;14.75;55.83;99821.91;129569;1277;108707;-74
2022/04/22 11:12:56;;;;;;;5.60;4.80;;;;;;;14.83;55.98;99815.95;130188;1271;108884;-73
2022/04/22 11:16:05;;;;;;;4.60;4.10;;;;;;;14.85;55.54;99816.05;130302;1271;108651;-73
2022/04/22 11:19:27;;;;;;;4.60;4.20;;;;;;;14.80;54.87;99818.48;131785;1271;108672;-74
2022/04/22 11:22:56;;;;;;;4.70;4.10;;;;;;;14.71;55.48;99819.05;130062;1270;108796;-72
2022/04/22 11:26:02;;;;;;;5.00;4.20;;;;;;;14.68;54.65;99817.04;130197;1271;108890;-75
2022/04/22 11:29:11;;;;;;;5.30;4.20;;;;;;;14.59;53.86;99820.94;130236;1271;108682;-71
2022/04/22 11:32:21;;;;;;;5.00;4.40;;;;;;;14.43;54.52;99818.67;129931;1271;108942;-71
2022/04/22 11:35:34;;;;;;;4.80;4.30;;;;;;;14.43;55.05;99819.87;129800;1271;108705;-70
2022/04/22 11:38:45;;;;;;;;;;;;;;;14.59;53.86;99813.47;129882;1270;108796;-71
2022/04/22 11:41:58;;;;;;;5.50;4.70;;;;;;;14.75;54.07;99812.81;129855;1271;108865;-70
2022/04/22 11:45:06;;;;;;;6.60;4.70;;;;;;;14.86;54.07;99812.84;129861;1271;108852;-71
2022/04/22 11:48:13;;;;;;;4.50;4.00;;;;;;;15.02;53.82;99811.70;129847;1271;108316;-70
2022/04/22 11:51:20;;;;;;;5.30;4.10;;;;;;;15.23;53.54;99811.30;129859;1271;108501;-73
2022/04/22 11:54:27;;;;;;;8.30;5.90;;;;;;;15.41;53.54;99802.01;130068;1271;107854;-71
2022/04/22 11:57:37;;;;;;;16.10;10.20;;;;;;;15.52;53.67;99798.79;129745;1271;108834;-72
2022/04/22 12:11:01;;;;;;;4.10;3.60;;;;;;;15.39;52.11;99800.44;130304;1271;108539;-70
2022/04/22 12:14:07;;;;;;;4.20;3.70;;;;;;;15.32;50.68;99797.08;130125;1271;108837;-72
2022/04/22 12:17:13;;;;;;;4.20;3.80;;;;;;;15.14;51.50;99790.56;130152;1271;108967;-72
2022/04/22 12:20:19;;;;;;;4.50;3.50;;;;;;;14.98;50.49;99794.52;129936;1274;109829;-73
2022/04/22 12:23:32;;;;;;;4.00;3.60;;;;;;;14.93;50.57;99796.75;130039;1271;108816;-73
2022/04/22 12:26:39;;;;;;;3.60;3.30;;;;;;;14.89;49.92;99798.53;130057;1271;109473;-76
2022/04/22 12:29:44;;;;;;;3.80;3.50;;;;;;;14.76;50.55;99806.29;130105;1270;108751;-72
2022/04/22 12:32:55;;;;;;;4.30;3.90;;;;;;;14.62;50.01;99810.63;130049;1271;108632;-70
2022/04/22 12:36:10;;;;;;;3.90;3.50;;;;;;;14.52;49.86;99808.83;129785;1271;108964;-75
2022/04/22 12:39:34;;;;;;;4.40;4.00;;;;;;;14.49;50.25;99805.57;130101;1271;109550;-74
2022/04/22 12:42:40;;;;;;;5.30;4.10;;;;;;;14.50;49.78;99801.56;130076;1274;108657;-71
2022/04/22 12:52:45;;;;;;;5.00;4.30;;;;;;;14.46;50.43;99789.67;129695;1274;108738;-71
2022/04/22 12:56:02;;;;;;;5.50;4.30;;;;;;;14.45;50.66;99787.77;129761;1271;108785;-71
2022/04/22 12:59:07;;;;;;;5.50;4.10;;;;;;;14.46;50.54;99783.40;130027;1270;108781;-71
2022/04/22 13:02:15;;;;;;;6.00;4.40;;;;;;;14.49;50.01;99784.50;129809;1271;108692;-71
2022/04/22 13:05:22;;;;;;;5.00;4.30;;;;;;;14.58;50.23;99783.09;129701;1271;108776;-71
2022/04/22 13:08:27;;;;;;;4.20;3.80;;;;;;;14.69;49.82;99781.85;129824;1271;108737;-71
2022/04/22 13:11:33;;;;;;;4.80;4.00;;;;;;;14.69;49.35;99776.55;130001;1271;107380;-73
2022/04/22 13:14:39;;;;;;;4.50;3.90;;;;;;;14.67;49.50;99768.36;130048;1271;108712;-72
2022/04/22 13:17:46;;;;;;;4.60;4.10;;;;;;;14.67;49.80;99762.95;130013;1271;108675;-72
2022/04/22 13:20:52;;;;;;;7.00;5.60;;;;;;;14.79;49.75;99760.01;130067;1271;108713;-72
2022/04/22 13:23:58;;;;;;;4.50;3.90;;;;;;;14.85;49.15;99759.98;130083;1271;108746;-72
2022/04/22 13:27:07;;;;;;;4.40;4.00;;;;;;;14.77;48.47;99762.83;130119;1271;108665;-72
2022/04/22 13:30:14;;;;;;;4.80;4.30;;;;;;;14.70;48.89;99762.20;129980;1271;108969;-70
2022/04/22 13:33:20;;;;;;;4.00;3.70;;;;;;;14.65;48.82;99763.56;130074;1271;108851;-70
2022/04/22 13:36:26;;;;;;;4.30;3.80;;;;;;;14.53;47.65;99759.69;129893;1271;108664;-73
2022/04/22 13:39:31;;;;;;;3.80;3.50;;;;;;;14.44;47.76;99762.94;130047;1271;107689;-72
2022/04/22 13:42:36;;;;;;;6.10;3.20;;;;;;;14.51;47.57;99761.35;130169;1271;107548;-70
2022/04/22 13:52:36;;;;;;;4.00;3.60;;;;;;;14.44;48.06;99745.17;129841;1271;109527;-71
2022/04/22 13:55:42;;;;;;;4.20;3.80;;;;;;;14.43;48.40;99744.21;129867;1271;108862;-70
2022/04/22 13:58:47;;;;;;;5.00;4.10;;;;;;;14.38;47.45;99748.29;130033;1271;108961;-73
2022/04/22 14:01:53;;;;;;;5.40;4.00;;;;;;;14.28;48.18;99747.68;129941;1274;107503;-72
2022/04/22 14:04:58;;;;;;;5.70;4.40;;;;;;;14.21;48.12;99749.48;130072;1271;108717;-71
2022/04/22 14:08:04;;;;;;;8.30;5.10;;;;;;;14.17;47.87;99752.35;130061;1270;108854;-71
2022/04/22 14:11:10;;;;;;;9.20;7.10;;;;;;;14.15;48.23;99753.25;129817;1271;108779;-72
2022/04/22 14:14:16;;;;;;;5.60;4.70;;;;;;;14.11;47.96;99756.04;130117;1271;108807;-72
2022/04/22 14:17:21;;;;;;;6.90;5.00;;;;;;;14.02;48.07;99750.61;129756;1271;108875;-70
2022/04/22 14:20:27;;;;;;;4.80;4.20;;;;;;;13.98;48.76;99752.79;129807;1271;108869;-72
2022/04/22 14:23:32;;;;;;;5.00;4.10;;;;;;;13.96;47.90;99752.73;129723;1271;109102;-70
2022/04/22 14:26:38;;;;;;;5.30;4.60;;;;;;;13.87;47.84;99758.27;129703;1271;108685;-70
2022/04/22 14:29:44;;;;;;;6.20;4.30;;;;;;;13.72;48.11;99761.88;129987;1271;108681;-73
2022/04/22 14:32:49;;;;;;;5.60;4.50;;;;;;;13.63;48.36;99767.10;130099;1271;108695;-71
2022/04/22 14:35:55;;;;;;;5.00;4.50;;;;;;;13.50;48.08;99765.56;129847;1273;108889;-71
2022/04/22 14:39:00;;;;;;;5.90;5.00;;;;;;;13.36;48.54;99766.96;129719;1274;108844;-72
2022/04/22 14:42:07;;;;;;;7.30;4.80;;;;;;;13.22;48.64;99769.36;129889;1274;108668;-74
2022/04/22 14:45:13;;;;;;;9.10;6.30;;;;;;;13.07;48.47;99770.84;130167;1274;108653;-74
2022/04/22 14:48:18;;;;;;;10.30;5.90;;;;;;;12.92;48.76;99767.73;130162;1273;108710;-76
2022/04/22 14:51:24;;;;;;;6.60;5.40;;;;;;;12.80;48.54;99774.14;130134;1272;108915;-75
2022/04/22 14:54:29;;;;;;;6.20;5.60;;;;;;;12.68;48.63;99777.48;130007;1273;108787;-75
2022/04/22 14:57:35;;;;;;;6.90;5.20;;;;;;;12.62;48.88;99775.58;130258;1271;108809;-75
2022/04/22 15:00:40;;;;;;;5.70;5.00;;;;;;;12.62;48.97;99778.30;130029;1271;108739;-75
2022/04/22 15:03:46;;;;;;;6.90;5.30;;;;;;;12.61;48.87;99778.41;130352;1271;108871;-77
2022/04/22 15:06:51;;;;;;;8.20;6.10;;;;;;;12.54;49.00;99782.08;131156;1271;108820;-77
2022/04/22 15:09:57;;;;;;;7.40;6.40;;;;;;;12.47;49.39;99781.05;130262;1271;107436;-77
2022/04/22 15:13:02;;;;;;;7.30;5.70;;;;;;;12.35;49.42;99779.17;130231;1271;108986;-77
2022/04/22 15:16:08;;;;;;;7.30;6.00;;;;;;;12.19;49.24;99782.06;130222;1272;108802;-77
2022/04/22 15:26:01;;;;;;;13.90;9.70;;;;;;;12.03;49.91;99780.84;130026;1271;109125;-74
2022/04/22 15:29:07;;;;;;;10.30;7.10;;;;;;;12.01;50.01;99780.25;130158;1271;108414;-73
2022/04/22 15:32:12;;;;;;;10.40;6.80;;;;;;;12.01;49.86;99779.21;130095;1271;108817;-72
2022/04/22 15:35:18;;;;;;;11.30;7.90;;;;;;;12.05;49.79;99779.33;130038;1271;108938;-71
2022/04/22 15:38:24;;;;;;;7.20;5.80;;;;;;;12.09;49.66;99771.09;130113;1271;108827;-70
2022/04/22 15:41:32;;;;;;;8.30;6.30;;;;;;;12.11;49.73;99769.44;129830;1271;109004;-70